createdAt,value
2019-01-19T04:02:56.646Z,14.03
2019-01-19T04:06:03.950Z,13.77
2019-01-19T04:09:11.181Z,12.73
2019-01-19T04:12:18.394Z,13.83
2019-01-19T04:15:22.650Z,14.43
2019-01-19T04:18:29.854Z,14.07
2019-01-19T04:21:37.078Z,13.87
2019-01-19T04:24:44.282Z,14.37
2019-01-19T04:27:32.234Z,13.93
2019-01-19T04:30:20.159Z,13.20
2019-01-19T04:33:08.111Z,13.10
2019-01-19T04:35:56.068Z,14.00
2019-01-19T04:41:42.162Z,14.37
2019-01-19T04:44:30.091Z,13.43
2019-01-19T04:47:18.042Z,12.90
2019-01-19T04:50:06.453Z,13.80
2019-01-19T04:52:54.399Z,13.87
2019-01-19T04:55:42.317Z,13.50
2019-01-19T04:58:30.278Z,14.13
2019-01-19T05:01:18.215Z,13.80
2019-01-19T05:04:06.153Z,12.73
2019-01-19T05:06:54.080Z,14.20
2019-01-19T05:09:42.289Z,13.40
2019-01-19T05:12:30.214Z,12.13
2019-01-19T05:15:19.123Z,12.70
2019-01-19T05:17:59.628Z,12.00
2019-01-19T05:20:38.434Z,10.97
2019-01-19T05:23:26.362Z,11.57
2019-01-19T05:26:14.310Z,12.33
2019-01-19T05:29:02.238Z,11.13
2019-01-19T05:31:50.196Z,10.33
2019-01-19T05:37:46.838Z,9.20
2019-01-19T05:40:34.761Z,9.63
2019-01-19T05:43:22.961Z,8.00
2019-01-19T05:46:10.880Z,9.20
2019-01-19T05:48:58.829Z,8.57
2019-01-19T05:51:46.754Z,8.80
2019-01-19T05:54:34.699Z,8.80
2019-01-19T05:57:22.613Z,8.10
2019-01-19T06:00:12.119Z,8.50
2019-01-19T06:03:00.056Z,7.87
2019-01-19T06:08:43.567Z,7.30
2019-01-19T06:11:31.885Z,6.57
2019-01-19T06:14:19.832Z,7.13
2019-01-19T06:16:58.836Z,6.60
2019-01-19T06:22:41.658Z,6.27
2019-01-19T06:25:29.594Z,6.23
2019-01-19T06:28:17.518Z,5.67
2019-01-19T06:31:07.088Z,6.10
2019-01-19T06:33:55.114Z,6.77
2019-01-19T06:36:43.068Z,7.57
2019-01-19T06:39:30.987Z,7.77
2019-01-19T06:42:18.955Z,7.30
2019-01-19T06:45:08.741Z,7.40
2019-01-19T06:47:56.688Z,6.83
2019-01-19T06:50:44.601Z,7.07
2019-01-19T06:53:32.550Z,6.73
2019-01-19T06:56:20.470Z,6.47
2019-01-19T06:59:08.686Z,6.57
2019-01-19T07:01:56.605Z,6.70
2019-01-19T07:04:44.812Z,6.17
2019-01-19T07:07:32.734Z,6.03
2019-01-19T07:13:14.561Z,5.97
2019-01-19T07:16:02.503Z,5.97
2019-01-19T07:18:43.046Z,6.50
2019-01-19T07:21:22.619Z,6.63
2019-01-19T07:24:10.570Z,5.80
2019-01-19T07:26:58.494Z,7.13
2019-01-19T07:29:46.555Z,6.17
2019-01-19T07:32:34.759Z,7.00
2019-01-19T07:35:22.714Z,7.23
2019-01-19T07:38:10.630Z,7.87
2019-01-19T07:40:58.594Z,6.97
2019-01-19T07:43:46.522Z,7.40
2019-01-19T07:49:29.721Z,7.53
2019-01-19T07:52:17.640Z,6.37
2019-01-19T07:55:06.172Z,7.00
2019-01-19T07:57:54.090Z,6.97
2019-01-19T08:00:42.034Z,7.50
2019-01-19T08:03:29.957Z,7.47
2019-01-19T08:06:17.905Z,7.53
2019-01-19T08:09:07.049Z,6.87
2019-01-19T08:11:54.993Z,6.10
2019-01-19T08:14:42.914Z,6.73
2019-01-19T08:17:30.861Z,5.80
2019-01-19T08:20:18.786Z,6.00
2019-01-19T08:22:58.645Z,6.13
2019-01-19T08:25:46.566Z,6.83
2019-01-19T08:28:15.258Z,6.23
2019-01-19T08:31:03.165Z,5.93
2019-01-19T08:33:51.110Z,5.93
2019-01-19T08:36:39.021Z,6.00
2019-01-19T08:39:27.067Z,5.83
2019-01-19T08:42:15.070Z,4.50
2019-01-19T08:45:03.089Z,4.77
2019-01-19T08:47:51.079Z,4.43
2019-01-19T08:50:39.022Z,3.77
2019-01-19T08:53:26.933Z,4.17
2019-01-19T08:59:08.841Z,4.50
2019-01-19T09:01:56.849Z,4.90
2019-01-19T09:04:44.837Z,3.90
2019-01-19T09:07:33.894Z,3.67
2019-01-19T09:10:22.491Z,4.10
2019-01-19T09:13:10.457Z,3.77
2019-01-19T09:16:04.210Z,4.03
2019-01-19T09:18:52.154Z,3.80
2019-01-19T09:21:40.427Z,4.53
2019-01-19T09:24:24.451Z,4.40
2019-01-19T09:27:12.514Z,3.77
2019-01-19T09:33:40.477Z,4.67
2019-01-19T09:36:04.270Z,3.63
2019-01-19T09:38:52.214Z,3.60
2019-01-19T09:41:40.139Z,3.87
2019-01-19T09:44:28.338Z,3.70
2019-01-19T09:47:17.643Z,3.57
2019-01-19T09:50:06.502Z,3.77
2019-01-19T09:52:54.421Z,3.33
2019-01-19T09:55:42.374Z,2.93
2019-01-19T09:58:30.298Z,3.90
2019-01-19T10:01:18.589Z,3.50
2019-01-19T10:04:06.510Z,3.33
2019-01-19T10:06:54.470Z,3.53
2019-01-19T10:09:42.385Z,3.60
2019-01-19T10:12:30.766Z,3.20
2019-01-19T10:15:18.710Z,3.70
2019-01-19T10:18:06.678Z,3.10
2019-01-19T10:24:03.342Z,3.77
2019-01-19T10:26:42.358Z,3.33
2019-01-19T10:32:25.608Z,3.13
2019-01-19T10:35:13.546Z,3.17
2019-01-19T10:38:01.501Z,3.40
2019-01-19T10:40:49.426Z,3.63
2019-01-19T10:43:37.386Z,2.93
2019-01-19T10:46:25.603Z,2.67
2019-01-19T10:49:13.547Z,3.50
2019-01-19T10:52:01.474Z,3.00
2019-01-19T10:54:49.422Z,3.23
2019-01-19T10:57:37.351Z,3.00
2019-01-19T11:00:26.429Z,3.00
2019-01-19T11:03:14.369Z,2.90
2019-01-19T11:06:02.321Z,2.80
2019-01-19T11:08:50.266Z,3.07
2019-01-19T11:11:38.500Z,3.50
2019-01-19T11:14:26.681Z,3.27
2019-01-19T11:17:14.886Z,3.67
2019-01-19T11:20:02.809Z,7.93
2019-01-19T11:22:41.678Z,5.37
2019-01-19T11:25:29.610Z,4.37
2019-01-19T11:28:17.550Z,3.63
2019-01-19T11:31:05.479Z,3.03
2019-01-19T11:33:53.442Z,3.57
2019-01-19T11:36:41.367Z,3.30
2019-01-19T11:39:29.318Z,3.23
2019-01-19T11:42:17.222Z,3.17
2019-01-19T11:45:05.546Z,3.30
2019-01-19T11:47:53.463Z,3.50
2019-01-19T11:50:41.410Z,2.87
2019-01-19T11:53:29.331Z,2.90
2019-01-19T11:56:17.282Z,3.77
2019-01-19T11:59:05.205Z,3.43
2019-01-19T12:01:53.149Z,3.50
2019-01-19T12:04:41.069Z,3.37
2019-01-19T12:07:29.005Z,3.47
2019-01-19T12:10:18.305Z,3.50
2019-01-19T12:13:06.278Z,3.70
2019-01-19T12:15:54.194Z,3.43
2019-01-19T12:18:42.134Z,3.53
2019-01-19T12:21:30.045Z,3.70
2019-01-19T12:24:10.454Z,3.80
2019-01-19T12:26:51.082Z,4.53
2019-01-19T12:29:31.956Z,3.30
2019-01-19T12:32:10.906Z,3.90
2019-01-19T12:34:58.861Z,3.67
2019-01-19T12:37:47.149Z,3.43
2019-01-19T12:40:35.094Z,4.27
2019-01-19T12:43:23.685Z,3.50
2019-01-19T12:46:11.793Z,3.67
2019-01-19T12:48:59.713Z,3.30
2019-01-19T12:51:47.654Z,2.90
2019-01-19T12:54:35.561Z,3.63
2019-01-19T12:57:23.514Z,3.07
2019-01-19T13:00:13.362Z,3.53
2019-01-19T13:03:01.623Z,3.97
2019-01-19T13:05:55.591Z,3.70
2019-01-19T13:08:43.563Z,3.80
2019-01-19T13:11:50.759Z,3.70
2019-01-19T13:14:41.529Z,3.63
2019-01-19T13:17:48.762Z,3.40
2019-01-19T13:20:41.588Z,3.77
2019-01-19T13:23:48.822Z,4.10
2019-01-19T13:26:42.401Z,4.10
2019-01-19T13:29:49.631Z,3.90
2019-01-19T13:32:56.907Z,3.93
2019-01-19T13:39:19.162Z,3.40
2019-01-19T13:42:26.382Z,3.50
2019-01-19T13:45:33.610Z,4.07
2019-01-19T13:48:40.831Z,3.77
2019-01-19T13:51:48.046Z,3.57
2019-01-19T13:54:55.245Z,3.63
2019-01-19T13:58:02.553Z,3.23
2019-01-19T14:01:09.750Z,3.60
2019-01-19T14:04:16.971Z,3.73
2019-01-19T14:07:24.170Z,4.33
2019-01-19T14:10:31.408Z,3.77
2019-01-19T14:13:38.663Z,3.67
2019-01-19T14:16:45.859Z,3.30
2019-01-19T14:19:53.090Z,3.13
2019-01-19T14:23:00.285Z,3.97
2019-01-19T14:25:52.445Z,4.20
2019-01-19T14:28:47.058Z,3.60
2019-01-19T14:31:54.304Z,5.40
2019-01-19T14:35:01.505Z,4.10
2019-01-19T14:38:08.722Z,5.60
2019-01-19T14:41:15.969Z,5.43
2019-01-19T14:44:23.170Z,5.10
2019-01-19T14:47:30.390Z,5.40
2019-01-19T14:50:37.618Z,6.50
2019-01-19T14:53:44.842Z,7.73
2019-01-19T14:56:52.051Z,11.40
2019-01-19T14:59:44.174Z,8.87
2019-01-19T15:02:51.403Z,5.27
2019-01-19T15:05:58.598Z,4.87
2019-01-19T15:09:05.899Z,11.80
2019-01-19T15:12:01.130Z,7.37
2019-01-19T15:15:08.358Z,6.47
2019-01-19T15:18:15.566Z,5.90
2019-01-19T15:21:07.765Z,7.10
2019-01-19T15:24:14.987Z,6.37
2019-01-19T15:30:21.054Z,6.27
2019-01-19T15:33:28.338Z,8.70
2019-01-19T15:36:35.607Z,8.83
2019-01-19T15:39:42.805Z,8.67
2019-01-19T15:42:34.529Z,7.87
2019-01-19T15:45:41.758Z,8.83
2019-01-19T15:48:49.010Z,7.17
2019-01-19T15:51:56.249Z,7.17
2019-01-19T15:55:03.470Z,7.77
2019-01-19T15:58:10.690Z,6.97
2019-01-19T16:01:17.913Z,7.60
2019-01-19T16:04:25.147Z,6.80
2019-01-19T16:07:32.342Z,5.90
2019-01-19T16:10:39.578Z,6.47
2019-01-19T16:13:46.798Z,6.63
2019-01-19T16:16:48.463Z,8.17
2019-01-19T16:19:55.691Z,8.43
2019-01-19T16:23:02.894Z,9.07
2019-01-19T16:26:10.118Z,7.90
2019-01-19T16:28:50.469Z,8.77
2019-01-19T16:31:48.654Z,8.30
2019-01-19T16:34:43.891Z,8.27
2019-01-19T16:37:51.086Z,9.20
2019-01-19T16:40:58.312Z,7.50
2019-01-19T16:43:51.402Z,8.77
2019-01-19T16:46:58.642Z,9.43
2019-01-19T16:50:06.019Z,9.90
2019-01-19T16:53:13.322Z,11.37
2019-01-19T16:56:20.598Z,12.00
2019-01-19T16:59:27.826Z,10.83
2019-01-19T17:02:21.574Z,10.23
2019-01-19T17:05:28.791Z,9.57
2019-01-19T17:08:29.574Z,11.43
2019-01-19T17:11:36.777Z,12.87
2019-01-19T17:14:44.001Z,14.33
2019-01-19T17:17:51.566Z,14.40
2019-01-19T17:20:58.786Z,13.60
2019-01-19T17:27:13.542Z,13.60
2019-01-19T17:30:20.854Z,13.53
2019-01-19T17:33:28.089Z,14.27
2019-01-19T17:36:35.315Z,14.17
2019-01-19T17:39:42.552Z,14.03
2019-01-19T17:42:49.782Z,14.93
2019-01-19T17:45:57.006Z,15.40
2019-01-19T17:49:04.218Z,14.10
2019-01-19T17:52:11.506Z,14.00
2019-01-19T17:55:03.970Z,13.83
2019-01-19T17:58:11.204Z,14.90
2019-01-19T18:01:18.414Z,13.40
2019-01-19T18:07:25.919Z,13.23
2019-01-19T18:10:17.066Z,13.20
2019-01-19T18:13:24.299Z,11.80
2019-01-19T18:16:31.511Z,12.07
2019-01-19T18:19:38.760Z,12.63
2019-01-19T18:25:57.239Z,13.40
2019-01-19T18:29:04.614Z,12.13
2019-01-19T18:35:12.818Z,10.77
2019-01-19T18:38:20.047Z,9.70
2019-01-19T18:41:27.286Z,10.40
2019-01-19T18:44:34.490Z,9.50
2019-01-19T18:47:41.720Z,9.80
2019-01-19T18:50:49.118Z,10.57
2019-01-19T18:53:56.335Z,10.30
2019-01-19T18:57:03.685Z,11.40
2019-01-19T19:00:10.891Z,11.67
2019-01-19T19:03:18.153Z,13.13
2019-01-19T19:06:25.404Z,12.80
2019-01-19T19:09:32.657Z,13.70
2019-01-19T19:12:39.931Z,12.70
2019-01-19T19:15:47.138Z,14.10
2019-01-19T19:18:54.367Z,13.33
2019-01-19T19:22:01.612Z,13.27
2019-01-19T19:25:08.879Z,12.47
2019-01-19T19:28:05.230Z,12.77
2019-01-19T19:31:12.518Z,13.57
2019-01-19T19:34:10.331Z,15.07
2019-01-19T19:37:17.573Z,16.40
2019-01-19T19:40:24.810Z,17.60
2019-01-19T19:43:18.070Z,18.80
2019-01-19T19:46:09.749Z,17.33
2019-01-19T19:49:16.949Z,18.20
2019-01-19T19:52:05.654Z,19.90
2019-01-19T19:54:53.067Z,19.40
2019-01-19T19:57:41.026Z,19.50
2019-01-19T20:00:29.050Z,19.60
2019-01-19T20:03:17.006Z,18.03
2019-01-19T20:06:04.968Z,18.67
2019-01-19T20:08:52.919Z,19.33
2019-01-19T20:11:40.928Z,18.17
2019-01-19T20:14:28.905Z,18.80
2019-01-19T20:17:18.600Z,20.77
2019-01-19T20:20:06.583Z,20.03
2019-01-19T20:22:54.534Z,22.50
2019-01-19T20:25:42.488Z,23.10
2019-01-19T20:28:30.432Z,23.20
2019-01-19T20:31:18.390Z,21.43
2019-01-19T20:33:57.022Z,21.40
2019-01-19T20:36:45.066Z,21.93
2019-01-19T20:39:33.014Z,22.13
2019-01-19T20:42:20.974Z,19.43
2019-01-19T20:45:09.597Z,18.37
2019-01-19T20:47:57.569Z,16.23
2019-01-19T20:50:45.510Z,16.83
2019-01-19T20:53:33.506Z,17.37
2019-01-19T20:56:21.701Z,18.80
2019-01-19T20:59:09.670Z,17.43
2019-01-19T21:01:57.614Z,18.13
2019-01-19T21:04:45.560Z,17.70
2019-01-19T21:07:33.482Z,17.30
2019-01-19T21:10:21.442Z,18.43
2019-01-19T21:13:09.626Z,18.57
2019-01-19T21:15:57.622Z,18.93
2019-01-19T21:18:45.626Z,19.60
2019-01-19T21:21:33.599Z,18.50
2019-01-19T21:24:21.525Z,16.37
2019-01-19T21:27:09.495Z,16.40
2019-01-19T21:29:57.422Z,16.27
2019-01-19T21:32:45.397Z,17.33
2019-01-19T21:35:25.740Z,17.87
2019-01-19T21:38:04.127Z,18.93
2019-01-19T21:40:52.065Z,20.10
2019-01-19T21:43:40.030Z,19.83
2019-01-19T21:46:27.963Z,21.10
2019-01-19T21:49:15.918Z,21.07
2019-01-19T21:52:03.855Z,20.17
2019-01-19T21:54:51.797Z,18.03
2019-01-19T21:57:39.725Z,19.00
2019-01-19T22:00:27.694Z,18.70
2019-01-19T22:03:15.625Z,18.80
2019-01-19T22:06:03.625Z,18.67
2019-01-19T22:08:51.565Z,17.80
2019-01-19T22:11:39.533Z,17.37
2019-01-19T22:14:27.473Z,16.97
2019-01-19T22:17:15.429Z,15.47
2019-01-19T22:20:03.430Z,16.37
2019-01-19T22:22:51.386Z,16.87
2019-01-19T22:25:39.335Z,16.13
2019-01-19T22:28:27.283Z,16.20
2019-01-19T22:31:15.204Z,14.70
2019-01-19T22:34:03.158Z,14.70
2019-01-19T22:36:42.158Z,15.23
2019-01-19T22:39:30.127Z,14.30
2019-01-19T22:42:18.087Z,13.90
2019-01-19T22:45:07.378Z,13.53
2019-01-19T22:47:55.310Z,13.13
2019-01-19T22:50:43.269Z,13.60
2019-01-19T22:53:31.193Z,13.93
2019-01-19T22:56:19.165Z,13.83
2019-01-19T22:59:07.385Z,13.20
